San Sebastian de los Reyes, Spain
Current Conditions -  °F | °C
As of 9:00 AM on Sunday 26 Oct 2014 (Local Time) from LEMD Reporting Station
Clear Clear  
Wind Chill: 48°   Ceiling: Unl
Heat Index: 48°   Visibility: 6mi
Dew Point: 45°   Wind: 1mph
Humidity: 87%   Direction: 350°N
Pressure: 30.21"   Gusts: NA
Location:  40.54°N, 3.62°W
Report Text: LEMD 260700Z 35001KT CAVOK 09/07 Q1023 NOSIG
Loading
Personal Weather Stations






























Interactive Weather Map
Tropical Storm Tracking
New forecast layout! Learn more

10-Day Weather Forecast

Advertisements
Track Severe Weather on mobile